Time;durP1;ratioP1;P1;durP2;ratioP2;P2;SDS_P1;SDS_P2;PMS_P1;PMS_P2;Temp;Humidity;BMP_temperature;BMP_pressure;BME280_temperature;BME280_humidity;BME280_pressure;Samples;Min_cycle;Max_cycle;Signal;HPM_P1;HPM_P2
2021/12/15 00:01:00;;;;;;;40.65;16.35;;;;;;;7.41;61.17;102594.81;4955812;28;20488;-68
2021/12/15 00:03:27;;;;;;;44.70;16.30;;;;;;;7.02;61.45;102592.19;4970634;28;20070;-69
2021/12/15 00:05:52;;;;;;;47.42;15.10;;;;;;;7.99;59.18;102593.97;4961276;28;20135;-69
2021/12/15 00:08:19;;;;;;;41.83;14.93;;;;;;;7.92;59.16;102588.75;4971343;28;20046;-69
2021/12/15 00:10:46;;;;;;;48.05;16.08;;;;;;;7.76;59.76;102583.56;4987262;28;20397;-70
2021/12/15 00:13:13;;;;;;;46.42;17.63;;;;;;;8.08;58.54;102592.22;4969231;28;20452;-68
2021/12/15 00:15:40;;;;;;;44.97;16.33;;;;;;;8.17;58.31;102588.72;4971657;28;20452;-70
2021/12/15 00:18:06;;;;;;;45.30;18.05;;;;;;;8.12;58.53;102587.88;4971403;28;20042;-69
2021/12/15 00:20:32;;;;;;;43.13;15.73;;;;;;;7.93;59.25;102589.63;4971569;28;20479;-72
2021/12/15 00:22:58;;;;;;;38.97;14.45;;;;;;;8.12;58.58;102595.69;4969834;28;20062;-69
2021/12/15 00:25:27;;;;;;;52.63;17.92;;;;;;;7.68;60.25;102594.84;4971771;28;20114;-70
2021/12/15 00:27:53;;;;;;;42.95;15.50;;;;;;;7.94;59.64;102596.59;4970532;28;20049;-70
2021/12/15 00:30:20;;;;;;;41.97;16.40;;;;;;;7.89;59.90;102587.88;4960225;28;20034;-69
2021/12/15 00:32:46;;;;;;;44.75;15.35;;;;;;;7.94;59.48;102580.97;4984732;28;20038;-70
2021/12/15 00:35:13;;;;;;;47.72;16.92;;;;;;;8.09;59.04;102586.16;4970928;28;20090;-70
2021/12/15 00:37:38;;;;;;;44.08;16.83;;;;;;;8.13;58.70;102589.59;4970615;28;20051;-68
2021/12/15 00:40:09;;;;;;;44.88;15.75;;;;;;;7.95;59.34;102587.88;4973385;28;20431;-70
2021/12/15 00:42:34;;;;;;;48.72;16.00;;;;;;;7.71;60.10;102587.06;4970833;28;20042;-69
2021/12/15 00:45:01;;;;;;;55.20;18.00;;;;;;;7.86;59.97;102588.75;4963133;28;20112;-69
2021/12/15 00:47:26;;;;;;;51.83;16.92;;;;;;;7.84;60.08;102584.44;4955208;28;20050;-69
2021/12/15 00:49:52;;;;;;;48.92;17.23;;;;;;;7.74;60.65;102587.06;4960894;28;20034;-69
2021/12/15 00:52:17;;;;;;;50.63;16.92;;;;;;;7.94;59.62;102586.16;4971920;28;20149;-71
2021/12/15 00:54:44;;;;;;;52.53;17.45;;;;;;;8.04;59.42;102585.25;4970863;28;20065;-70
2021/12/15 00:57:10;;;;;;;55.35;16.88;;;;;;;7.87;59.79;102584.41;4972772;28;20548;-71
2021/12/15 00:59:35;;;;;;;56.78;17.35;;;;;;;8.22;58.92;102581.75;4972416;28;20041;-71
2021/12/15 01:02:02;;;;;;;54.28;18.13;;;;;;;7.67;60.20;102576.66;4969643;28;20054;-71
2021/12/15 01:04:30;;;;;;;50.10;16.63;;;;;;;8.00;59.56;102580.94;4945317;28;20041;-71
2021/12/15 01:07:03;;;;;;;53.90;18.02;;;;;;;7.98;59.57;102577.50;4972700;28;20094;-71
2021/12/15 01:09:40;;;;;;;54.22;18.00;;;;;;;8.11;59.21;102579.19;4971244;28;20153;-71
2021/12/15 01:12:15;;;;;;;60.90;20.38;;;;;;;7.87;60.22;102574.91;4972543;28;20052;-71
2021/12/15 01:20:25;;;;;;;76.13;19.80;;;;;;;7.67;60.97;102582.72;4975800;28;20125;-72
2021/12/15 01:22:53;;;;;;;67.75;19.48;;;;;;;7.88;60.45;102580.97;4962988;28;20046;-73
2021/12/15 01:25:36;;;;;;;53.22;17.05;;;;;;;7.88;60.08;102581.81;4965183;28;20030;-73
2021/12/15 01:28:02;;;;;;;70.28;19.98;;;;;;;8.02;59.76;102588.75;4973752;28;20620;-73
2021/12/15 01:30:30;;;;;;;55.92;20.20;;;;;;;8.11;59.68;102589.63;4975762;28;20045;-72
2021/12/15 01:32:58;;;;;;;69.10;17.90;;;;;;;8.24;59.34;102585.22;4972766;28;20715;-73
2021/12/15 01:35:24;;;;;;;57.28;19.00;;;;;;;8.30;58.80;102580.00;4975234;28;20037;-73
2021/12/15 01:37:51;;;;;;;74.00;19.95;;;;;;;8.23;59.31;102582.63;4970117;28;20190;-67
2021/12/15 01:40:31;;;;;;;66.93;18.45;;;;;;;8.32;59.10;102582.59;4954335;28;20092;-68
2021/12/15 01:42:56;;;;;;;58.50;19.30;;;;;;;8.27;58.96;102584.34;4984639;28;20129;-68
2021/12/15 01:48:10;;;;;;;63.70;18.80;;;;;;;8.09;59.87;102575.72;4968580;28;20451;-69
2021/12/15 01:50:36;;;;;;;55.22;17.73;;;;;;;8.35;59.11;102588.66;4970050;28;20034;-69
2021/12/15 01:53:04;;;;;;;62.78;19.23;;;;;;;8.12;59.11;102580.06;4969597;28;20030;-69
2021/12/15 01:55:29;;;;;;;63.17;20.10;;;;;;;8.00;60.08;102585.28;4955586;28;20066;-70
2021/12/15 01:57:55;;;;;;;63.35;19.27;;;;;;;8.44;58.66;102594.72;4966092;28;20057;-69
2021/12/15 02:00:26;;;;;;;74.10;20.90;;;;;;;7.66;61.03;102590.53;4969346;28;20057;-70
2021/12/15 02:02:53;;;;;;;67.67;21.10;;;;;;;8.14;59.57;102587.00;4969366;28;20054;-70
2021/12/15 02:05:19;;;;;;;62.85;19.10;;;;;;;8.23;59.08;102580.91;4971045;28;20692;-70
2021/12/15 02:07:47;;;;;;;66.90;20.67;;;;;;;8.10;60.12;102582.66;4969115;28;20069;-71
2021/12/15 02:10:13;;;;;;;77.95;20.27;;;;;;;8.10;59.49;102584.41;4986466;28;20030;-69
2021/12/15 02:12:41;;;;;;;70.45;19.90;;;;;;;7.68;60.94;102589.66;4952378;28;20042;-70
2021/12/15 02:15:12;;;;;;;68.15;22.27;;;;;;;7.93;60.44;102579.22;4981927;28;20033;-70
2021/12/15 02:17:39;;;;;;;69.53;23.02;;;;;;;7.82;60.95;102589.63;4967930;28;20049;-71
2021/12/15 02:20:07;;;;;;;71.13;20.50;;;;;;;7.50;61.41;102590.50;4983240;28;20038;-69
2021/12/15 02:22:33;;;;;;;59.10;19.33;;;;;;;8.10;60.08;102582.66;4970408;28;20054;-69
2021/12/15 02:25:00;;;;;;;53.20;17.17;;;;;;;7.56;61.19;102587.06;4972289;28;20037;-70
2021/12/15 02:27:31;;;;;;;65.50;20.00;;;;;;;8.06;60.00;102586.13;4968513;28;20093;-70
2021/12/15 02:30:04;;;;;;;47.40;19.10;;;;;;;8.20;59.40;102580.88;4970088;28;20594;-69
2021/12/15 02:32:45;;;;;;;59.25;18.35;;;;;;;7.98;60.21;102587.00;4969458;28;20088;-70
2021/12/15 02:37:55;;;;;;;52.03;20.50;;;;;;;8.17;59.54;102588.72;4967284;28;20105;-71
2021/12/15 02:40:21;;;;;;;48.33;17.10;;;;;;;8.05;60.45;102594.81;4972107;28;20022;-73
2021/12/15 02:42:48;;;;;;;52.72;18.30;;;;;;;8.37;59.06;102588.66;4983848;28;20046;-72
2021/12/15 02:45:19;;;;;;;41.85;18.33;;;;;;;7.92;60.14;102588.75;4970254;28;20123;-72
2021/12/15 02:47:45;;;;;;;56.15;18.75;;;;;;;8.30;59.07;102590.41;4969849;28;20587;-72
2021/12/15 02:50:18;;;;;;;37.28;17.85;;;;;;;8.58;58.25;102590.31;4975756;28;20532;-72
2021/12/15 02:52:44;;;;;;;48.03;16.48;;;;;;;8.38;59.06;102587.78;4985413;28;20047;-72
2021/12/15 02:55:13;;;;;;;48.67;16.33;;;;;;;8.53;58.02;102590.31;4970843;28;20034;-72
2021/12/15 02:57:39;;;;;;;39.78;16.38;;;;;;;8.19;59.69;102592.19;4990076;28;20106;-73
2021/12/15 03:00:19;;;;;;;40.65;15.70;;;;;;;8.66;57.77;102588.53;4972555;28;20045;-72
2021/12/15 03:05:29;;;;;;;41.72;18.50;;;;;;;8.18;59.05;102590.44;4975806;28;20037;-71
2021/12/15 03:15:53;;;;;;;43.63;16.88;;;;;;;7.63;60.89;102591.41;4964380;28;20034;-71
2021/12/15 03:18:23;;;;;;;43.15;16.63;;;;;;;8.10;59.63;102587.88;4973660;28;20046;-70
2021/12/15 03:21:01;;;;;;;36.40;16.45;;;;;;;8.31;58.85;102586.06;4971070;28;20510;-71
2021/12/15 03:23:37;;;;;;;51.38;16.58;;;;;;;7.93;59.64;102589.63;4973625;28;20078;-71
2021/12/15 03:26:03;;;;;;;43.25;15.95;;;;;;;8.12;59.34;102585.25;4975115;28;20077;-70
2021/12/15 03:36:40;;;;;;;41.20;15.88;;;;;;;8.28;58.88;102583.47;4975623;28;20526;-71
2021/12/15 03:39:09;;;;;;;45.90;18.17;;;;;;;8.25;58.98;102578.25;4965645;28;20066;-70
2021/12/15 03:41:35;;;;;;;32.20;15.75;;;;;;;8.03;59.63;102575.72;4972456;28;20456;-71
2021/12/15 03:44:02;;;;;;;35.40;15.57;;;;;;;8.15;59.34;102574.81;4959662;28;20048;-69
2021/12/15 03:46:29;;;;;;;38.42;16.98;;;;;;;8.02;59.64;102579.19;4987029;28;20085;-70
2021/12/15 03:48:56;;;;;;;38.63;15.43;;;;;;;8.42;58.21;102580.81;4973350;28;20045;-70
2021/12/15 03:51:22;;;;;;;44.13;17.58;;;;;;;7.87;59.63;102581.81;4970205;28;20042;-69
2021/12/15 03:53:48;;;;;;;41.00;16.80;;;;;;;7.60;60.63;102581.00;4987944;28;20031;-69
2021/12/15 03:56:15;;;;;;;34.90;15.63;;;;;;;8.61;58.12;102576.41;4972301;28;20515;-69
2021/12/15 03:58:42;;;;;;;37.95;16.63;;;;;;;8.60;57.68;102574.66;4958657;28;20057;-70
2021/12/15 04:01:14;;;;;;;41.88;17.92;;;;;;;8.30;58.48;102580.00;4973629;28;20035;-69
2021/12/15 04:03:43;;;;;;;35.10;15.57;;;;;;;8.66;57.28;102585.06;4973224;28;20043;-68
2021/12/15 04:06:13;;;;;;;36.70;15.70;;;;;;;8.37;58.60;102580.84;4972193;28;20627;-69
2021/12/15 04:08:40;;;;;;;46.75;16.33;;;;;;;8.48;58.19;102583.41;4967189;28;20050;-71
2021/12/15 04:11:11;;;;;;;39.92;15.60;;;;;;;8.11;59.42;102589.63;4974080;28;20041;-72
2021/12/15 04:13:39;;;;;;;42.10;18.80;;;;;;;8.29;58.59;102587.81;4970784;28;20042;-71
2021/12/15 04:16:07;;;;;;;35.47;15.20;;;;;;;8.08;59.40;102589.59;4971186;28;20046;-70
2021/12/15 04:18:36;;;;;;;41.50;16.45;;;;;;;8.42;58.13;102584.28;4969358;28;20058;-70
2021/12/15 04:21:04;;;;;;;38.00;16.23;;;;;;;7.99;59.81;102574.00;4985839;28;20034;-70
2021/12/15 04:23:30;;;;;;;37.00;16.95;;;;;;;8.25;58.90;102581.75;4970331;28;20046;-71
2021/12/15 04:25:58;;;;;;;43.00;17.00;;;;;;;8.07;59.36;102589.59;4972186;28;20169;-70
2021/12/15 04:28:32;;;;;;;44.00;17.77;;;;;;;8.52;57.89;102590.34;4972260;28;20161;-72
2021/12/15 04:30:59;;;;;;;39.38;17.65;;;;;;;8.11;59.10;102592.22;4973302;28;20641;-71
2021/12/15 04:33:32;;;;;;;35.72;16.75;;;;;;;8.27;58.55;102589.53;4971731;28;20050;-71
2021/12/15 04:36:01;;;;;;;41.53;17.13;;;;;;;7.94;59.50;102588.78;4972276;28;20031;-71
2021/12/15 04:38:29;;;;;;;35.25;15.43;;;;;;;8.18;59.12;102581.75;4972095;28;20483;-74
2021/12/15 04:40:57;;;;;;;35.45;15.20;;;;;;;8.22;58.94;102575.69;4958733;28;20507;-71
2021/12/15 04:43:22;;;;;;;41.28;16.35;;;;;;;8.36;58.55;102585.19;4962318;28;20063;-70
2021/12/15 04:45:48;;;;;;;38.00;16.38;;;;;;;8.27;58.97;102581.72;4971955;28;20062;-70
2021/12/15 04:48:14;;;;;;;36.42;15.88;;;;;;;8.53;58.21;102587.72;4971150;28;20058;-69
2021/12/15 04:50:41;;;;;;;38.95;15.68;;;;;;;8.16;58.89;102589.59;4969538;28;20043;-70
2021/12/15 04:53:08;;;;;;;37.75;17.30;;;;;;;8.62;57.82;102585.97;4970731;28;20035;-70
2021/12/15 04:55:36;;;;;;;35.03;15.32;;;;;;;8.86;57.12;102590.22;4968467;28;20031;-71
2021/12/15 04:58:03;;;;;;;37.42;15.65;;;;;;;8.32;58.63;102591.28;4972610;28;20058;-70
2021/12/15 05:00:48;;;;;;;39.53;16.58;;;;;;;8.28;58.74;102596.50;4971494;28;21511;-70
2021/12/15 05:03:13;;;;;;;38.15;17.92;;;;;;;8.11;58.90;102607.84;4970188;28;20044;-70
2021/12/15 05:05:39;;;;;;;37.40;16.13;;;;;;;8.04;58.95;102613.91;4967093;28;20432;-69
2021/12/15 05:08:06;;;;;;;38.60;16.27;;;;;;;8.67;57.39;102605.94;4973540;28;20049;-70
2021/12/15 05:10:33;;;;;;;35.35;15.95;;;;;;;8.36;58.04;102605.19;4969936;28;20026;-71
2021/12/15 05:12:58;;;;;;;41.78;15.93;;;;;;;8.36;58.47;102606.03;4972470;28;20046;-69
2021/12/15 05:15:25;;;;;;;40.38;16.42;;;;;;;8.00;59.50;102606.97;4973639;28;20027;-70
2021/12/15 05:17:51;;;;;;;35.75;16.73;;;;;;;8.63;57.68;102618.94;4969947;28;20050;-71
2021/12/15 05:20:17;;;;;;;34.63;15.50;;;;;;;8.70;57.03;102605.91;4971488;28;20046;-72
2021/12/15 05:22:42;;;;;;;38.78;16.65;;;;;;;8.07;59.26;102618.25;4971888;28;20050;-70
2021/12/15 05:25:09;;;;;;;35.28;14.50;;;;;;;7.98;59.41;102616.53;4960965;28;20093;-70
2021/12/15 05:27:35;;;;;;;40.53;16.63;;;;;;;8.50;57.94;102621.63;4970630;28;20035;-70
2021/12/15 05:30:02;;;;;;;43.17;18.48;;;;;;;8.38;57.92;102612.97;4970116;28;20101;-70
2021/12/15 05:32:28;;;;;;;46.60;17.77;;;;;;;7.96;59.53;102620.88;4970206;28;20043;-71
2021/12/15 05:34:58;;;;;;;40.22;16.80;;;;;;;7.55;60.55;102626.94;4971392;28;20502;-70
2021/12/15 05:37:24;;;;;;;42.10;17.70;;;;;;;8.19;59.16;102623.44;4971065;28;20042;-71
2021/12/15 05:39:52;;;;;;;50.47;18.35;;;;;;;8.41;58.27;102634.69;4972160;28;20037;-69
2021/12/15 05:42:19;;;;;;;46.58;18.35;;;;;;;8.46;57.74;102622.50;4968939;28;20074;-72
2021/12/15 05:44:49;;;;;;;40.00;17.25;;;;;;;8.02;58.69;102626.06;4972120;28;20069;-73
2021/12/15 05:47:17;;;;;;;38.78;17.05;;;;;;;8.38;58.21;102624.25;4971236;28;20097;-73
2021/12/15 05:49:43;;;;;;;42.17;17.40;;;;;;;8.15;58.85;102625.19;4971379;28;20164;-71
2021/12/15 05:52:09;;;;;;;40.03;17.20;;;;;;;8.38;58.46;102629.47;4956058;28;20062;-71
2021/12/15 05:54:35;;;;;;;43.42;17.48;;;;;;;8.46;57.64;102622.50;4957082;28;20129;-73
2021/12/15 05:57:02;;;;;;;47.53;19.90;;;;;;;8.02;58.78;102628.66;4958865;28;20054;-71
2021/12/15 05:59:27;;;;;;;45.22;18.27;;;;;;;7.69;60.05;102627.84;4970375;28;20026;-69
2021/12/15 06:01:53;;;;;;;43.95;18.67;;;;;;;8.04;59.28;102628.69;4969134;28;20031;-69
2021/12/15 06:04:20;;;;;;;48.05;18.75;;;;;;;8.27;58.26;102626.00;4969405;28;20659;-69
2021/12/15 06:06:46;;;;;;;38.85;17.60;;;;;;;8.08;59.08;102626.06;4966378;28;20034;-69
2021/12/15 06:09:12;;;;;;;37.67;16.38;;;;;;;8.24;58.55;102620.81;4970034;28;20033;-69
2021/12/15 06:11:39;;;;;;;38.53;17.08;;;;;;;8.45;57.71;102612.06;4969109;28;20429;-69
2021/12/15 06:14:06;;;;;;;38.92;17.00;;;;;;;8.47;57.62;102624.25;4968747;28;20665;-69
2021/12/15 06:16:33;;;;;;;42.58;18.38;;;;;;;8.81;56.26;102623.25;4985571;28;20042;-69
2021/12/15 06:18:59;;;;;;;30.50;16.48;;;;;;;8.23;58.28;102632.13;4968353;28;20316;-69
2021/12/15 06:21:25;;;;;;;38.88;17.38;;;;;;;8.08;58.40;102636.47;4969666;28;20046;-74
2021/12/15 06:23:50;;;;;;;46.58;16.95;;;;;;;8.19;58.18;102639.06;4986175;28;20149;-73
2021/12/15 06:26:18;;;;;;;39.83;18.17;;;;;;;8.09;58.33;102633.03;4953898;28;20033;-73
2021/12/15 06:28:44;;;;;;;41.97;17.33;;;;;;;8.50;57.03;102634.66;4967970;28;20558;-72
2021/12/15 06:31:14;;;;;;;37.65;16.98;;;;;;;8.58;57.48;102642.44;4961803;28;20491;-71
2021/12/15 06:33:41;;;;;;;41.47;17.40;;;;;;;8.12;58.67;102643.44;4957368;28;20045;-71
2021/12/15 06:36:08;;;;;;;36.90;16.80;;;;;;;8.17;58.04;102645.16;4968333;28;20055;-71
2021/12/15 06:38:39;;;;;;;44.90;16.10;;;;;;;8.22;58.63;102648.63;4969050;28;20081;-69
2021/12/15 06:41:07;;;;;;;38.83;17.67;;;;;;;7.98;58.92;102655.59;4970999;28;20038;-67
2021/12/15 06:43:34;;;;;;;40.13;17.48;;;;;;;8.44;57.30;102652.03;4975110;28;20065;-70
2021/12/15 06:59:13;;;;;;;46.22;17.00;;;;;;;8.64;57.05;102659.81;4968806;28;20078;-74
2021/12/15 07:01:38;;;;;;;33.25;15.88;;;;;;;8.41;57.35;102665.94;4971377;28;20034;-72
2021/12/15 07:04:04;;;;;;;38.15;16.15;;;;;;;7.98;58.77;102663.41;4967148;28;20038;-71
2021/12/15 07:06:29;;;;;;;37.47;14.50;;;;;;;8.28;57.58;102662.50;4971358;28;20043;-70
2021/12/15 07:08:55;;;;;;;35.90;16.08;;;;;;;8.27;57.77;102662.50;4975212;28;20197;-71
2021/12/15 07:11:22;;;;;;;41.80;16.73;;;;;;;8.63;56.39;102671.97;4964264;28;20042;-71
2021/12/15 07:13:48;;;;;;;42.65;16.15;;;;;;;8.13;57.89;102671.19;4974591;28;20264;-72
2021/12/15 07:16:14;;;;;;;42.95;15.73;;;;;;;8.61;56.97;102670.25;4954752;28;20098;-70
2021/12/15 07:21:20;;;;;;;41.70;16.85;;;;;;;7.95;59.21;102673.81;4970979;28;20499;-72
2021/12/15 07:23:47;;;;;;;36.90;16.20;;;;;;;8.62;56.37;102669.38;4966487;28;20500;-72
2021/12/15 07:26:13;;;;;;;35.63;15.77;;;;;;;8.57;56.63;102672.00;4953889;28;20046;-72
2021/12/15 07:28:39;;;;;;;44.67;15.43;;;;;;;8.30;57.38;102678.13;4967888;28;20043;-72
2021/12/15 07:31:05;;;;;;;41.65;16.92;;;;;;;8.42;57.30;102677.25;4982970;28;20043;-74
2021/12/15 07:33:31;;;;;;;41.05;16.73;;;;;;;8.38;57.29;102681.56;4971003;28;20042;-71
2021/12/15 07:35:57;;;;;;;37.03;16.70;;;;;;;8.12;58.02;102684.22;4971691;28;20034;-73
2021/12/15 07:38:23;;;;;;;42.58;15.98;;;;;;;8.52;56.88;102684.19;4967570;28;20045;-72
2021/12/15 07:40:49;;;;;;;41.28;17.17;;;;;;;7.53;60.04;102680.69;4952540;28;20461;-70
2021/12/15 07:43:24;;;;;;;44.33;17.15;;;;;;;8.11;57.88;102688.59;4968980;28;20054;-71
2021/12/15 07:46:00;;;;;;;45.63;17.30;;;;;;;7.73;59.35;102679.03;4973428;28;20141;-70
2021/12/15 07:48:34;;;;;;;36.40;15.27;;;;;;;8.26;57.76;102692.03;4961318;28;20968;-71
2021/12/15 07:51:03;;;;;;;40.75;16.23;;;;;;;8.51;56.71;102687.63;4958596;28;20034;-71
2021/12/15 07:53:29;;;;;;;42.70;15.40;;;;;;;8.33;57.07;102704.16;4961477;28;20456;-71
2021/12/15 07:55:56;;;;;;;42.95;16.35;;;;;;;8.48;56.84;102698.94;4972190;28;20114;-70
2021/12/15 07:58:24;;;;;;;38.80;15.73;;;;;;;8.21;57.55;102701.59;4969850;28;20133;-70
2021/12/15 08:00:52;;;;;;;44.13;17.02;;;;;;;8.38;57.09;102693.75;4972000;28;20030;-70
2021/12/15 08:03:18;;;;;;;45.22;15.68;;;;;;;7.77;59.37;102702.44;4967627;28;20592;-71
2021/12/15 08:05:46;;;;;;;44.63;17.40;;;;;;;7.91;58.50;102691.19;4969840;28;20031;-69
2021/12/15 08:08:12;;;;;;;43.67;16.33;;;;;;;8.07;58.12;102705.06;4967701;28;20129;-71
2021/12/15 08:10:38;;;;;;;37.65;16.30;;;;;;;8.36;57.40;102707.66;4971612;28;20454;-70
2021/12/15 08:13:04;;;;;;;45.28;18.45;;;;;;;7.49;59.56;102703.25;4968701;28;20050;-70
2021/12/15 08:15:30;;;;;;;39.78;16.88;;;;;;;7.80;59.12;102702.44;4992744;22;20045;-66
2021/12/15 08:17:55;;;;;;;44.28;18.75;;;;;;;7.96;58.52;102712.03;4966554;28;20566;-67
2021/12/15 08:20:25;;;;;;;40.60;17.10;;;;;;;7.67;59.50;102702.44;4985013;28;20061;-66
2021/12/15 08:22:51;;;;;;;48.17;17.08;;;;;;;7.91;59.13;102703.31;4967500;28;20198;-67
2021/12/15 08:25:18;;;;;;;39.00;15.95;;;;;;;8.27;57.37;102707.66;4969659;28;20042;-67
2021/12/15 08:27:45;;;;;;;46.78;19.27;;;;;;;8.26;57.98;102707.66;4985087;28;20042;-67
2021/12/15 08:30:19;;;;;;;46.40;18.02;;;;;;;7.95;58.42;102716.34;4966585;28;20134;-67
2021/12/15 08:32:46;;;;;;;43.50;15.95;;;;;;;8.68;56.25;102716.28;4985772;28;20380;-67
2021/12/15 08:35:12;;;;;;;44.05;17.00;;;;;;;8.55;56.99;102716.28;4977434;28;20023;-67
2021/12/15 08:37:38;;;;;;;38.42;16.85;;;;;;;8.31;57.55;102722.41;4985193;28;20068;-66
2021/12/15 08:40:04;;;;;;;47.33;18.42;;;;;;;8.28;57.46;102716.34;4986803;28;20559;-66
2021/12/15 08:42:30;;;;;;;41.97;16.95;;;;;;;8.56;56.70;102718.03;4985165;28;20049;-67
2021/12/15 08:44:56;;;;;;;43.70;17.77;;;;;;;8.09;58.23;102713.75;4956375;28;20034;-67
2021/12/15 08:47:23;;;;;;;37.28;18.23;;;;;;;8.45;57.22;102714.59;4987669;28;20041;-66
2021/12/15 08:49:49;;;;;;;40.88;17.70;;;;;;;8.50;56.98;102733.69;4971681;28;20515;-67
2021/12/15 08:52:14;;;;;;;40.45;16.60;;;;;;;7.97;58.55;102728.50;4984626;28;20423;-66
2021/12/15 08:54:40;;;;;;;41.00;17.88;;;;;;;8.05;58.59;102732.00;4984005;28;20026;-67
2021/12/15 08:57:07;;;;;;;39.63;16.98;;;;;;;8.44;56.88;102738.91;4986039;28;20062;-67
2021/12/15 08:59:33;;;;;;;44.97;18.50;;;;;;;8.37;57.38;102737.19;4986472;28;20038;-66
2021/12/15 09:01:59;;;;;;;39.10;19.13;;;;;;;8.42;57.30;102725.00;4969125;28;20882;-67
2021/12/15 09:04:25;;;;;;;35.50;15.98;;;;;;;8.33;57.54;102730.22;4985366;28;20045;-66
2021/12/15 09:06:52;;;;;;;44.45;16.92;;;;;;;7.62;59.77;102732.78;4985459;28;20786;-66
2021/12/15 09:09:20;;;;;;;38.03;17.38;;;;;;;7.47;60.08;102732.75;4987903;28;20108;-66
2021/12/15 09:11:47;;;;;;;38.17;17.20;;;;;;;8.43;57.69;102736.31;4966787;28;20041;-66
2021/12/15 09:14:13;;;;;;;49.08;17.27;;;;;;;8.56;56.49;102730.19;4986303;28;20034;-66
2021/12/15 09:16:42;;;;;;;37.40;16.02;;;;;;;7.84;58.32;102735.44;4983474;28;20111;-66
2021/12/15 09:19:07;;;;;;;38.00;15.60;;;;;;;8.08;57.69;102732.84;4969671;28;20092;-66
2021/12/15 09:21:35;;;;;;;33.58;15.45;;;;;;;8.26;57.60;102734.56;4987306;28;20133;-66
2021/12/15 09:24:05;;;;;;;34.40;15.52;;;;;;;8.32;57.06;102728.50;4985933;28;20042;-66
2021/12/15 09:26:30;;;;;;;35.45;16.92;;;;;;;7.95;58.75;102733.69;4968230;28;20062;-66
2021/12/15 09:28:56;;;;;;;37.13;16.75;;;;;;;8.08;57.51;102730.22;4985206;28;20133;-66
2021/12/15 09:31:22;;;;;;;39.05;15.85;;;;;;;8.65;56.25;102737.13;4989132;28;20453;-67
2021/12/15 09:33:51;;;;;;;37.05;15.10;;;;;;;8.91;55.47;102727.53;4967877;28;20050;-66
2021/12/15 09:36:19;;;;;;;38.90;15.70;;;;;;;8.47;56.83;102741.53;4986991;28;20033;-66
2021/12/15 09:38:48;;;;;;;42.65;16.10;;;;;;;8.35;56.73;102738.91;4986983;28;20041;-65
2021/12/15 09:41:17;;;;;;;40.03;16.27;;;;;;;8.23;57.19;102738.94;4986322;28;20496;-66
2021/12/15 09:43:44;;;;;;;38.67;15.73;;;;;;;8.21;56.92;102745.88;4967950;28;20073;-66
2021/12/15 09:46:29;;;;;;;30.98;14.13;;;;;;;8.42;56.72;102745.84;4984828;28;20457;-65
2021/12/15 10:01:52;;;;;;;31.30;14.70;;;;;;;8.48;56.45;102760.63;4985757;28;20052;-65
2021/12/15 10:05:37;;;;;;;27.67;12.60;;;;;;;8.23;56.96;102770.19;4966632;28;20038;-65
2021/12/15 10:19:21;;;;;;;27.40;10.68;;;;;;;8.82;54.99;102764.06;4988200;28;20092;-65
2021/12/15 10:22:10;;;;;;;17.30;7.88;;;;;;;8.38;55.19;102764.94;4975863;28;20038;-64
2021/12/15 10:25:00;;;;;;;21.80;8.73;;;;;;;8.15;55.43;102760.63;4989691;28;20655;-65
2021/12/15 10:27:53;;;;;;;17.58;6.78;;;;;;;8.62;53.95;102765.81;4968842;28;20184;-65
2021/12/15 10:30:25;;;;;;;13.82;6.38;;;;;;;8.31;54.63;102769.28;4987295;28;20080;-65
2021/12/15 10:33:05;;;;;;;7.38;5.03;;;;;;;8.61;54.06;102777.13;4995594;22;20109;-66
2021/12/15 10:35:38;;;;;;;10.88;5.45;;;;;;;8.63;53.61;102771.03;4975140;28;20101;-65
2021/12/15 10:38:25;;;;;;;10.63;5.63;;;;;;;8.51;54.70;102769.28;4967864;28;20146;-65
2021/12/15 10:41:00;;;;;;;13.07;4.72;;;;;;;9.01;53.27;102764.00;4965419;28;20045;-64
2021/12/15 10:43:40;;;;;;;8.55;4.65;;;;;;;8.40;55.02;102762.34;4967165;28;20137;-65
2021/12/15 10:46:15;;;;;;;8.40;4.63;;;;;;;8.85;53.73;102764.06;4968711;28;20046;-64
2021/12/15 10:49:04;;;;;;;7.72;4.70;;;;;;;8.57;54.28;102771.88;4964033;28;20047;-65
2021/12/15 10:51:38;;;;;;;10.75;4.30;;;;;;;8.90;53.78;102767.53;4966957;28;20035;-65
2021/12/15 10:54:08;;;;;;;13.88;4.72;;;;;;;8.93;53.80;102770.09;4948460;28;20106;-65
2021/12/15 10:56:39;;;;;;;16.05;5.05;;;;;;;9.33;52.89;102764.75;4966103;28;20039;-62
2021/12/15 10:59:13;;;;;;;8.68;4.07;;;;;;;8.98;53.48;102762.28;4949743;28;20054;-65
2021/12/15 11:01:53;;;;;;;17.73;5.63;;;;;;;9.14;53.39;102765.69;4964698;28;20041;-65
2021/12/15 11:04:30;;;;;;;11.57;5.05;;;;;;;9.12;53.97;102764.81;4934265;28;20076;-66
2021/12/15 11:07:13;;;;;;;9.68;5.20;;;;;;;9.33;53.16;102756.06;4968800;28;20050;-66
2021/12/15 11:09:55;;;;;;;13.45;5.20;;;;;;;8.49;54.64;102755.38;4950349;28;21808;-65
2021/12/15 11:12:40;;;;;;;14.05;5.18;;;;;;;8.79;54.44;102760.63;4965227;28;20043;-65
2021/12/15 11:15:12;;;;;;;16.00;4.68;;;;;;;9.18;53.76;102767.41;4941248;28;20042;-65
2021/12/15 11:17:47;;;;;;;15.25;6.32;;;;;;;8.56;55.03;102770.16;4964969;28;20081;-65
2021/12/15 11:20:47;;;;;;;11.68;6.13;;;;;;;8.82;53.92;102766.66;4960796;28;20030;-64
2021/12/15 11:23:18;;;;;;;15.85;6.13;;;;;;;8.51;55.05;102766.69;4924753;28;20051;-64
2021/12/15 11:25:49;;;;;;;18.65;6.55;;;;;;;8.50;55.20;102762.34;4969063;28;20045;-65
2021/12/15 11:28:25;;;;;;;10.93;6.07;;;;;;;8.81;54.26;102756.22;4968260;28;20050;-66
2021/12/15 11:30:51;;;;;;;8.90;5.07;;;;;;;8.88;54.07;102748.41;4971188;28;20454;-64
2021/12/15 11:33:27;;;;;;;14.95;5.82;;;;;;;8.71;54.43;102743.22;4968710;28;20042;-64
2021/12/15 11:35:55;;;;;;;14.10;5.70;;;;;;;9.24;52.89;102743.06;4971930;28;20034;-65
2021/12/15 11:38:21;;;;;;;13.00;7.15;;;;;;;7.93;56.32;102749.31;4951508;28;20065;-65
2021/12/15 11:41:09;;;;;;;12.85;6.05;;;;;;;9.00;54.06;102744.88;4970539;28;20085;-65
2021/12/15 11:43:49;;;;;;;13.10;6.55;;;;;;;9.28;52.76;102753.47;4958819;28;20042;-64
2021/12/15 11:46:17;;;;;;;14.43;5.85;;;;;;;8.24;55.43;102749.34;4949088;28;20038;-64
2021/12/15 11:48:48;;;;;;;18.10;6.10;;;;;;;8.59;54.80;102747.59;4965196;28;20467;-64
2021/12/15 11:51:14;;;;;;;16.65;7.05;;;;;;;8.70;54.28;102745.81;4967184;28;20411;-64
2021/12/15 11:53:42;;;;;;;16.65;6.47;;;;;;;8.74;53.76;102742.38;4951810;28;20077;-64
2021/12/15 11:56:12;;;;;;;18.60;6.70;;;;;;;8.89;53.55;102736.22;4953618;28;20388;-64
2021/12/15 11:58:38;;;;;;;12.25;5.97;;;;;;;8.98;53.56;102742.31;4968623;28;20491;-64
2021/12/15 12:01:03;;;;;;;13.18;6.18;;;;;;;8.66;53.92;102733.66;4971384;28;20130;-64
2021/12/15 12:03:29;;;;;;;17.50;5.32;;;;;;;8.77;53.48;102744.97;4966024;28;20539;-64
2021/12/15 12:05:56;;;;;;;15.35;5.03;;;;;;;8.90;53.33;102738.84;4958781;28;20061;-64
2021/12/15 12:08:23;;;;;;;13.25;5.78;;;;;;;9.25;52.64;102742.16;4956092;28;20097;-64
2021/12/15 12:10:51;;;;;;;10.05;4.55;;;;;;;9.36;51.72;102743.84;4949528;28;20042;-65
2021/12/15 12:13:23;;;;;;;13.10;4.72;;;;;;;9.54;51.09;102742.00;4956306;28;20100;-64
2021/12/15 12:15:53;;;;;;;11.50;4.93;;;;;;;8.66;52.99;102744.09;4948648;28;20041;-64
2021/12/15 12:18:22;;;;;;;11.13;4.45;;;;;;;8.77;52.63;102740.59;4966733;28;20053;-64
2021/12/15 12:20:51;;;;;;;12.68;4.53;;;;;;;9.00;51.74;102744.03;4952668;28;20496;-64
2021/12/15 12:23:20;;;;;;;11.35;3.92;;;;;;;9.42;51.13;102747.31;4966554;28;20448;-65
2021/12/15 12:25:50;;;;;;;11.38;4.65;;;;;;;9.35;51.28;102757.78;4965287;28;20467;-64
2021/12/15 12:28:19;;;;;;;10.15;3.08;;;;;;;9.15;51.08;102749.19;4962504;28;20352;-64
2021/12/15 12:30:49;;;;;;;8.70;4.05;;;;;;;9.02;51.12;102755.31;4956172;28;20038;-64
2021/12/15 12:33:18;;;;;;;7.25;3.17;;;;;;;9.12;51.12;102760.50;4951256;28;20050;-65
2021/12/15 12:35:48;;;;;;;14.13;2.42;;;;;;;8.66;52.19;102762.34;4966689;28;20407;-64
2021/12/15 12:38:20;;;;;;;7.57;3.00;;;;;;;9.09;50.97;102759.63;4965856;28;20046;-65